This is the latest recevied weather packets stored in our database for station/object PD0HRY-12. If no packets are shown the sender has not sent any weather packets the latest 10 day(s).
| Time | Temp. | Humidity | Pressure | Rain* | Wind** | Luminosity | Snow |
|---|---|---|---|---|---|---|---|
| 1788469200 | 19.44° C | 84% | 1013 hPa | - | - | - | - |
| 1788467404 | 20° C | 85% | 1012 hPa | - | - | - | - |
| 1788465619 | 20° C | 84% | 1013 hPa | - | - | - | - |
| 1788463801 | 20° C | 82% | 1012 hPa | - | - | - | - |
| 1788462004 | 20.56° C | 80% | 1013 hPa | - | - | - | - |
| 1788460202 | 21.11° C | 78% | 1013 hPa | - | - | - | - |
| 1788458405 | 21.67° C | 73% | 1013 hPa | - | - | - | - |
| 1788456603 | 22.22° C | 68% | 1013 hPa | - | - | - | - |
| 1788454802 | 22.22° C | 71% | 1013 hPa | - | - | - | - |
| 1788453000 | 22.78° C | 67% | 1013 hPa | - | - | - | - |
| 1788451203 | 22.78° C | 65% | 1013 hPa | - | - | - | - |
| 1788449402 | 23.33° C | 62% | 1013 hPa | - | - | - | - |
| 1788447605 | 23.89° C | 61% | 1012 hPa | - | - | - | - |
| 1788445803 | 23.89° C | 62% | 1013 hPa | - | - | - | - |
| 1788444001 | 22.78° C | 70% | 1012 hPa | - | - | - | - |
| 1788442204 | 23.33° C | 68% | 1012 hPa | - | - | - | - |
| 1788440403 | 23.33° C | 71% | 1012 hPa | - | - | - | - |
| 1788438601 | 22.78° C | 71% | 1012 hPa | - | - | - | - |
| 1788436804 | 22.22° C | 72% | 1012 hPa | - | - | - | - |
| 1788435002 | 21.67° C | 77% | 1012 hPa | - | - | - | - |
| 1788433200 | 21.11° C | 79% | 1012 hPa | - | - | - | - |
| 1788431403 | 20.56° C | 82% | 1012 hPa | - | - | - | - |
| 1788429602 | 20° C | 86% | 1012 hPa | - | - | - | - |
| 1788427800 | 19.44° C | 87% | 1012 hPa | - | - | - | - |
| 1788426003 | 18.33° C | 91% | 1012 hPa | - | - | - | - |
* Rain since midnight (hover to see other rain measurements)
** Current wind speed in m/s (hover to see current wind gust speed)